sensor_id;sensor_type;location;lat;lon;timestamp;pressure;altitude;pressure_sealevel;temperature;humidity
83200;BME280;73092;49.132;8.920;2024-01-27T00:01:31;101180.44;;;-1.47;100.00
83200;BME280;73092;49.132;8.920;2024-01-27T00:03:56;101185.00;;;-1.59;100.00
83200;BME280;73092;49.132;8.920;2024-01-27T00:06:22;101187.13;;;-1.68;100.00
83200;BME280;73092;49.132;8.920;2024-01-27T00:08:47;101191.19;;;-1.55;100.00
83200;BME280;73092;49.132;8.920;2024-01-27T00:11:13;101189.72;;;-1.50;100.00
83200;BME280;73092;49.132;8.920;2024-01-27T00:13:38;101194.06;;;-1.49;100.00
83200;BME280;73092;49.132;8.920;2024-01-27T00:16:04;101198.47;;;-1.65;100.00
83200;BME280;73092;49.132;8.920;2024-01-27T00:18:29;101200.75;;;-1.71;100.00
83200;BME280;73092;49.132;8.920;2024-01-27T00:20:54;101197.88;;;-1.77;100.00
83200;BME280;73092;49.132;8.920;2024-01-27T00:23:20;101199.63;;;-1.76;100.00
83200;BME280;73092;49.132;8.920;2024-01-27T00:25:45;101205.63;;;-1.77;100.00
83200;BME280;73092;49.132;8.920;2024-01-27T00:28:10;101206.59;;;-1.75;100.00
83200;BME280;73092;49.132;8.920;2024-01-27T00:30:36;101210.63;;;-1.80;100.00
83200;BME280;73092;49.132;8.920;2024-01-27T00:33:01;101213.00;;;-1.84;100.00
83200;BME280;73092;49.132;8.920;2024-01-27T00:35:27;101208.41;;;-1.90;100.00
83200;BME280;73092;49.132;8.920;2024-01-27T00:37:52;101208.41;;;-1.90;100.00
83200;BME280;73092;49.132;8.920;2024-01-27T00:40:19;101210.00;;;-1.92;100.00
83200;BME280;73092;49.132;8.920;2024-01-27T00:42:45;101209.13;;;-1.93;100.00
83200;BME280;73092;49.132;8.920;2024-01-27T00:45:10;101211.91;;;-1.88;100.00
83200;BME280;73092;49.132;8.920;2024-01-27T00:47:35;101211.91;;;-1.88;100.00
83200;BME280;73092;49.132;8.920;2024-01-27T00:50:01;101210.00;;;-1.92;100.00
83200;BME280;73092;49.132;8.920;2024-01-27T00:52:26;101206.66;;;-1.91;100.00
83200;BME280;73092;49.132;8.920;2024-01-27T00:54:52;101206.50;;;-1.94;100.00
83200;BME280;73092;49.132;8.920;2024-01-27T00:57:17;101212.94;;;-2.02;100.00
83200;BME280;73092;49.132;8.920;2024-01-27T00:59:43;101209.09;;;-2.11;100.00
83200;BME280;73092;49.132;8.920;2024-01-27T01:02:08;101215.88;;;-2.13;100.00
83200;BME280;73092;49.132;8.920;2024-01-27T01:04:33;101219.06;;;-2.17;100.00
83200;BME280;73092;49.132;8.920;2024-01-27T01:06:59;101222.31;;;-2.21;100.00
83200;BME280;73092;49.132;8.920;2024-01-27T01:09:24;101220.31;;;-2.26;100.00
83200;BME280;73092;49.132;8.920;2024-01-27T01:11:50;101220.25;;;-2.28;100.00
83200;BME280;73092;49.132;8.920;2024-01-27T01:14:15;101225.22;;;-2.31;100.00
83200;BME280;73092;49.132;8.920;2024-01-27T01:16:41;101238.91;;;-2.32;100.00
83200;BME280;73092;49.132;8.920;2024-01-27T01:19:07;101235.69;;;-2.28;100.00
83200;BME280;73092;49.132;8.920;2024-01-27T01:21:32;101238.28;;;-2.28;100.00
83200;BME280;73092;49.132;8.920;2024-01-27T01:23:58;101251.16;;;-2.28;100.00
83200;BME280;73092;49.132;8.920;2024-01-27T01:26:24;101238.44;;;-2.25;100.00
83200;BME280;73092;49.132;8.920;2024-01-27T01:28:49;101241.31;;;-2.19;100.00
83200;BME280;73092;49.132;8.920;2024-01-27T01:31:15;101241.72;;;-2.27;100.00
83200;BME280;73092;49.132;8.920;2024-01-27T01:33:40;101249.19;;;-2.32;100.00
83200;BME280;73092;49.132;8.920;2024-01-27T01:36:05;101245.03;;;-2.30;100.00
83200;BME280;73092;49.132;8.920;2024-01-27T01:38:32;101247.91;;;-2.24;100.00
83200;BME280;73092;49.132;8.920;2024-01-27T01:40:57;101244.03;;;-2.32;100.00
83200;BME280;73092;49.132;8.920;2024-01-27T01:43:23;101249.03;;;-2.35;100.00
83200;BME280;73092;49.132;8.920;2024-01-27T01:45:48;101255.97;;;-2.34;100.00
83200;BME280;73092;49.132;8.920;2024-01-27T01:48:15;101266.13;;;-2.37;100.00
83200;BME280;73092;49.132;8.920;2024-01-27T01:50:41;101267.38;;;-2.45;100.00
83200;BME280;73092;49.132;8.920;2024-01-27T01:53:06;101260.31;;;-2.49;100.00
83200;BME280;73092;49.132;8.920;2024-01-27T01:55:33;101262.91;;;-2.49;100.00
83200;BME280;73092;49.132;8.920;2024-01-27T01:57:58;101264.19;;;-2.41;100.00
83200;BME280;73092;49.132;8.920;2024-01-27T02:00:24;101262.09;;;-2.48;100.00
83200;BME280;73092;49.132;8.920;2024-01-27T02:02:49;101277.38;;;-2.51;100.00
83200;BME280;73092;49.132;8.920;2024-01-27T02:05:14;101273.84;;;-2.53;100.00
83200;BME280;73092;49.132;8.920;2024-01-27T02:07:40;101282.50;;;-2.51;100.00
83200;BME280;73092;49.132;8.920;2024-01-27T02:10:13;101289.47;;;-2.50;100.00
83200;BME280;73092;49.132;8.920;2024-01-27T02:12:39;101284.81;;;-2.41;100.00
83200;BME280;73092;49.132;8.920;2024-01-27T02:15:05;101282.84;;;-2.45;100.00
83200;BME280;73092;49.132;8.920;2024-01-27T02:17:30;101285.59;;;-2.42;100.00
83200;BME280;73092;49.132;8.920;2024-01-27T02:19:55;101292.75;;;-2.37;100.00
83200;BME280;73092;49.132;8.920;2024-01-27T02:22:21;101288.00;;;-2.45;100.00
83200;BME280;73092;49.132;8.920;2024-01-27T02:24:46;101294.59;;;-2.50;100.00
83200;BME280;73092;49.132;8.920;2024-01-27T02:27:12;101297.97;;;-2.51;100.00
83200;BME280;73092;49.132;8.920;2024-01-27T02:29:37;101298.13;;;-2.48;100.00
83200;BME280;73092;49.132;8.920;2024-01-27T02:32:03;101298.13;;;-2.48;100.00
83200;BME280;73092;49.132;8.920;2024-01-27T02:34:29;101301.34;;;-2.52;100.00
83200;BME280;73092;49.132;8.920;2024-01-27T02:36:54;101307.06;;;-2.58;100.00
83200;BME280;73092;49.132;8.920;2024-01-27T02:39:19;101296.97;;;-2.70;100.00
83200;BME280;73092;49.132;8.920;2024-01-27T02:41:45;101309.94;;;-2.68;100.00
83200;BME280;73092;49.132;8.920;2024-01-27T02:44:10;101311.63;;;-2.69;100.00
83200;BME280;73092;49.132;8.920;2024-01-27T02:46:35;101310.91;;;-2.66;100.00
83200;BME280;73092;49.132;8.920;2024-01-27T02:49:01;101307.78;;;-2.61;100.00
83200;BME280;73092;49.132;8.920;2024-01-27T02:51:26;101302.06;;;-2.55;100.00
83200;BME280;73092;49.132;8.920;2024-01-27T02:53:51;101310.22;;;-2.47;100.00
83200;BME280;73092;49.132;8.920;2024-01-27T02:56:17;101304.25;;;-2.63;100.00
83200;BME280;73092;49.132;8.920;2024-01-27T02:58:42;101309.06;;;-2.69;100.00
83200;BME280;73092;49.132;8.920;2024-01-27T03:01:07;101301.78;;;-2.76;100.00
83200;BME280;73092;49.132;8.920;2024-01-27T03:03:33;101295.75;;;-2.76;100.00
83200;BME280;73092;49.132;8.920;2024-01-27T03:05:59;101299.00;;;-2.64;100.00
83200;BME280;73092;49.132;8.920;2024-01-27T03:08:24;101294.13;;;-2.60;100.00
83200;BME280;73092;49.132;8.920;2024-01-27T03:10:50;101295.72;;;-2.62;100.00
83200;BME280;73092;49.132;8.920;2024-01-27T03:13:15;101299.09;;;-2.63;100.00
83200;BME280;73092;49.132;8.920;2024-01-27T03:15:41;101295.03;;;-2.74;100.00
83200;BME280;73092;49.132;8.920;2024-01-27T03:18:08;101306.94;;;-2.76;100.00
83200;BME280;73092;49.132;8.920;2024-01-27T03:20:33;101299.69;;;-2.83;100.00
83200;BME280;73092;49.132;8.920;2024-01-27T03:22:59;101304.66;;;-2.86;100.00
83200;BME280;73092;49.132;8.920;2024-01-27T03:25:24;101311.44;;;-2.88;100.00
83200;BME280;73092;49.132;8.920;2024-01-27T03:27:51;101314.63;;;-2.92;100.00
83200;BME280;73092;49.132;8.920;2024-01-27T03:30:17;101302.91;;;-2.87;100.00
83200;BME280;73092;49.132;8.920;2024-01-27T03:32:42;101314.97;;;-2.86;100.00
83200;BME280;73092;49.132;8.920;2024-01-27T03:35:07;101314.44;;;-2.95;100.00
83200;BME280;73092;49.132;8.920;2024-01-27T03:37:33;101312.50;;;-2.99;100.00
83200;BME280;73092;49.132;8.920;2024-01-27T03:40:00;101319.59;;;-2.95;100.00
83200;BME280;73092;49.132;8.920;2024-01-27T03:42:25;101323.22;;;-2.92;100.00
83200;BME280;73092;49.132;8.920;2024-01-27T03:44:50;101320.41;;;-2.96;100.00
83200;BME280;73092;49.132;8.920;2024-01-27T03:47:17;101323.16;;;-2.93;100.00
83200;BME280;73092;49.132;8.920;2024-01-27T03:49:42;101319.41;;;-2.98;100.00
83200;BME280;73092;49.132;8.920;2024-01-27T03:52:08;101319.25;;;-3.02;100.00
83200;BME280;73092;49.132;8.920;2024-01-27T03:54:33;101319.78;;;-3.07;100.00
83200;BME280;73092;49.132;8.920;2024-01-27T03:56:58;101325.91;;;-3.05;100.00
83200;BME280;73092;49.132;8.920;2024-01-27T03:59:24;101322.47;;;-3.06;100.00
83200;BME280;73092;49.132;8.920;2024-01-27T04:01:49;101328.31;;;-3.08;100.00
83200;BME280;73092;49.132;8.920;2024-01-27T04:04:14;101324.94;;;-3.07;100.00
83200;BME280;73092;49.132;8.920;2024-01-27T04:06:40;101326.19;;;-3.15;100.00
83200;BME280;73092;49.132;8.920;2024-01-27T04:09:06;101321.88;;;-3.16;100.00
83200;BME280;73092;49.132;8.920;2024-01-27T04:11:35;101321.75;;;-3.18;100.00
83200;BME280;73092;49.132;8.920;2024-01-27T04:14:06;101330.47;;;-3.16;100.00
83200;BME280;73092;49.132;8.920;2024-01-27T04:16:32;101335.44;;;-3.19;100.00
83200;BME280;73092;49.132;8.920;2024-01-27T04:18:57;101325.16;;;-3.19;100.00
83200;BME280;73092;49.132;8.920;2024-01-27T04:21:23;101337.03;;;-3.21;100.00
83200;BME280;73092;49.132;8.920;2024-01-27T04:23:48;101336.84;;;-3.24;100.00
83200;BME280;73092;49.132;8.920;2024-01-27T04:26:13;101343.84;;;-3.21;100.00
83200;BME280;73092;49.132;8.920;2024-01-27T04:28:39;101343.94;;;-3.20;100.00
83200;BME280;73092;49.132;8.920;2024-01-27T04:31:04;101353.16;;;-3.23;100.00
83200;BME280;73092;49.132;8.920;2024-01-27T04:33:30;101355.19;;;-3.33;100.00
83200;BME280;73092;49.132;8.920;2024-01-27T04:35:55;101360.09;;;-3.37;100.00
83200;BME280;73092;49.132;8.920;2024-01-27T04:38:20;101361.69;;;-3.39;100.00
83200;BME280;73092;49.132;8.920;2024-01-27T04:40:46;101356.34;;;-3.42;100.00
83200;BME280;73092;49.132;8.920;2024-01-27T04:43:29;101354.59;;;-3.43;100.00
83200;BME280;73092;49.132;8.920;2024-01-27T04:45:55;101356.00;;;-3.49;100.00
83200;BME280;73092;49.132;8.920;2024-01-27T04:48:20;101357.63;;;-3.51;100.00
83200;BME280;73092;49.132;8.920;2024-01-27T04:50:46;101369.69;;;-3.35;100.00
83200;BME280;73092;49.132;8.920;2024-01-27T04:53:14;101370.19;;;-3.40;100.00
83200;BME280;73092;49.132;8.920;2024-01-27T04:55:40;101362.94;;;-3.47;100.00
83200;BME280;73092;49.132;8.920;2024-01-27T04:58:06;101367.97;;;-3.49;100.00
83200;BME280;73092;49.132;8.920;2024-01-27T05:00:32;101369.47;;;-3.53;100.00
83200;BME280;73092;49.132;8.920;2024-01-27T05:02:57;101376.56;;;-3.49;100.00
83200;BME280;73092;49.132;8.920;2024-01-27T05:05:28;101369.47;;;-3.53;100.00
83200;BME280;73092;49.132;8.920;2024-01-27T05:07:53;101370.88;;;-3.58;100.00
83200;BME280;73092;49.132;8.920;2024-01-27T05:10:18;101377.28;;;-3.66;100.00
83200;BME280;73092;49.132;8.920;2024-01-27T05:12:44;101368.69;;;-3.66;100.00
83200;BME280;73092;49.132;8.920;2024-01-27T05:15:10;101369.75;;;-3.63;100.00
83200;BME280;73092;49.132;8.920;2024-01-27T05:17:36;101375.09;;;-3.73;100.00
83200;BME280;73092;49.132;8.920;2024-01-27T05:20:01;101373.16;;;-3.77;100.00
83200;BME280;73092;49.132;8.920;2024-01-27T05:22:29;101382.03;;;-3.72;100.00
83200;BME280;73092;49.132;8.920;2024-01-27T05:24:54;101378.34;;;-3.62;100.00
83200;BME280;73092;49.132;8.920;2024-01-27T05:27:20;101367.13;;;-3.78;100.00
83200;BME280;73092;49.132;8.920;2024-01-27T05:29:45;101371.59;;;-3.75;100.00
83200;BME280;73092;49.132;8.920;2024-01-27T05:32:10;101371.75;;;-3.72;100.00
83200;BME280;73092;49.132;8.920;2024-01-27T05:34:36;101369.97;;;-3.73;100.00
83200;BME280;73092;49.132;8.920;2024-01-27T05:37:01;101369.59;;;-3.79;100.00
83200;BME280;73092;49.132;8.920;2024-01-27T05:39:26;101370.22;;;-3.83;100.00
83200;BME280;73092;49.132;8.920;2024-01-27T05:41:54;101371.41;;;-3.78;100.00
83200;BME280;73092;49.132;8.920;2024-01-27T05:44:20;101377.94;;;-3.83;100.00
83200;BME280;73092;49.132;8.920;2024-01-27T05:46:45;101373.31;;;-3.89;100.00
83200;BME280;73092;49.132;8.920;2024-01-27T05:49:10;101375.00;;;-3.89;100.00
83200;BME280;73092;49.132;8.920;2024-01-27T05:51:35;101371.53;;;-3.90;100.00
83200;BME280;73092;49.132;8.920;2024-01-27T05:54:01;101364.13;;;-3.85;100.00
83200;BME280;73092;49.132;8.920;2024-01-27T05:56:27;101374.22;;;-3.88;100.00
83200;BME280;73092;49.132;8.920;2024-01-27T05:58:52;101375.63;;;-3.93;100.00
83200;BME280;73092;49.132;8.920;2024-01-27T06:01:18;101378.06;;;-3.95;100.00
83200;BME280;73092;49.132;8.920;2024-01-27T06:03:44;101374.44;;;-3.99;100.00
83200;BME280;73092;49.132;8.920;2024-01-27T06:06:10;101377.75;;;-3.86;100.00
83200;BME280;73092;49.132;8.920;2024-01-27T06:08:35;101377.81;;;-4.00;100.00
83200;BME280;73092;49.132;8.920;2024-01-27T06:11:01;101381.00;;;-4.04;100.00
83200;BME280;73092;49.132;8.920;2024-01-27T06:13:26;101376.63;;;-4.05;100.00
83200;BME280;73092;49.132;8.920;2024-01-27T06:15:52;101382.13;;;-3.85;100.00
83200;BME280;73092;49.132;8.920;2024-01-27T06:18:17;101378.00;;;-3.97;100.00
83200;BME280;73092;49.132;8.920;2024-01-27T06:20:44;101380.38;;;-4.00;100.00
83200;BME280;73092;49.132;8.920;2024-01-27T06:23:09;101386.91;;;-4.05;100.00
83200;BME280;73092;49.132;8.920;2024-01-27T06:25:34;101383.38;;;-4.07;100.00
83200;BME280;73092;49.132;8.920;2024-01-27T06:28:00;101380.50;;;-4.11;100.00
83200;BME280;73092;49.132;8.920;2024-01-27T06:30:25;101395.84;;;-4.13;100.00
83200;BME280;73092;49.132;8.920;2024-01-27T06:32:51;101400.88;;;-4.14;100.00
83200;BME280;73092;49.132;8.920;2024-01-27T06:35:16;101397.34;;;-4.16;100.00
83200;BME280;73092;49.132;8.920;2024-01-27T06:37:42;101407.78;;;-4.13;100.00
83200;BME280;73092;49.132;8.920;2024-01-27T06:40:07;101395.53;;;-4.18;100.00
83200;BME280;73092;49.132;8.920;2024-01-27T06:42:34;101391.28;;;-4.17;100.00
83200;BME280;73092;49.132;8.920;2024-01-27T06:45:00;101399.91;;;-4.16;100.00
83200;BME280;73092;49.132;8.920;2024-01-27T06:47:25;101387.56;;;-4.22;100.00
83200;BME280;73092;49.132;8.920;2024-01-27T06:49:50;101382.44;;;-4.22;100.00
83200;BME280;73092;49.132;8.920;2024-01-27T06:52:16;101384.44;;;-4.31;100.00
83200;BME280;73092;49.132;8.920;2024-01-27T06:54:41;101391.25;;;-4.32;100.00
83200;BME280;73092;49.132;8.920;2024-01-27T06:57:20;101397.88;;;-4.35;100.00
83200;BME280;73092;49.132;8.920;2024-01-27T06:59:53;101398.16;;;-4.31;100.00
83200;BME280;73092;49.132;8.920;2024-01-27T07:02:26;101400.03;;;-4.28;100.00
83200;BME280;73092;49.132;8.920;2024-01-27T07:04:52;101406.50;;;-4.20;100.00
83200;BME280;73092;49.132;8.920;2024-01-27T07:07:22;101405.72;;;-4.19;100.00
83200;BME280;73092;49.132;8.920;2024-01-27T07:09:48;101415.38;;;-4.15;100.00
83200;BME280;73092;49.132;8.920;2024-01-27T07:12:14;101410.75;;;-4.21;100.00
83200;BME280;73092;49.132;8.920;2024-01-27T07:14:39;101426.84;;;-4.23;100.00
83200;BME280;73092;49.132;8.920;2024-01-27T07:17:05;101419.44;;;-4.19;100.00
83200;BME280;73092;49.132;8.920;2024-01-27T07:19:30;101416.38;;;-4.13;100.00
83200;BME280;73092;49.132;8.920;2024-01-27T07:21:56;101412.56;;;-4.20;100.00
83200;BME280;73092;49.132;8.920;2024-01-27T07:24:21;101408.88;;;-4.10;100.00
83200;BME280;73092;49.132;8.920;2024-01-27T07:26:46;101414.19;;;-4.07;100.00
83200;BME280;73092;49.132;8.920;2024-01-27T07:29:12;101414.00;;;-4.10;100.00
83200;BME280;73092;49.132;8.920;2024-01-27T07:31:37;101412.03;;;-4.14;100.00
83200;BME280;73092;49.132;8.920;2024-01-27T07:34:03;101421.53;;;-4.13;100.00
83200;BME280;73092;49.132;8.920;2024-01-27T07:36:31;101427.63;;;-4.11;100.00
83200;BME280;73092;49.132;8.920;2024-01-27T07:38:58;101429.41;;;-4.10;100.00
83200;BME280;73092;49.132;8.920;2024-01-27T07:41:23;101417.53;;;-4.08;100.00
83200;BME280;73092;49.132;8.920;2024-01-27T07:43:48;101428.00;;;-4.05;100.00
83200;BME280;73092;49.132;8.920;2024-01-27T07:46:14;101418.09;;;-3.99;100.00
83200;BME280;73092;49.132;8.920;2024-01-27T07:48:39;101412.47;;;-3.93;100.00
83200;BME280;73092;49.132;8.920;2024-01-27T07:51:04;101419.03;;;-3.83;100.00
83200;BME280;73092;49.132;8.920;2024-01-27T07:53:30;101413.91;;;-3.83;100.00
83200;BME280;73092;49.132;8.920;2024-01-27T07:55:55;101417.41;;;-3.68;100.00
83200;BME280;73092;49.132;8.920;2024-01-27T07:58:21;101416.00;;;-3.63;100.00
83200;BME280;73092;49.132;8.920;2024-01-27T08:00:46;101423.91;;;-3.60;100.00
83200;BME280;73092;49.132;8.920;2024-01-27T08:03:12;101423.19;;;-3.57;100.00
83200;BME280;73092;49.132;8.920;2024-01-27T08:05:37;101421.06;;;-3.50;100.00
83200;BME280;73092;49.132;8.920;2024-01-27T08:08:03;101430.31;;;-3.38;100.00
83200;BME280;73092;49.132;8.920;2024-01-27T08:10:29;101426.06;;;-3.23;100.00
83200;BME280;73092;49.132;8.920;2024-01-27T08:12:54;101413.13;;;-3.10;100.00
83200;BME280;73092;49.132;8.920;2024-01-27T08:15:19;101408.50;;;-3.00;100.00
83200;BME280;73092;49.132;8.920;2024-01-27T08:17:45;101404.59;;;-2.94;100.00
83200;BME280;73092;49.132;8.920;2024-01-27T08:20:10;101404.22;;;-2.85;100.00
83200;BME280;73092;49.132;8.920;2024-01-27T08:22:36;101396.06;;;-2.78;100.00
83200;BME280;73092;49.132;8.920;2024-01-27T08:25:01;101394.25;;;-2.64;100.00
83200;BME280;73092;49.132;8.920;2024-01-27T08:27:27;101400.78;;;-2.54;100.00
83200;BME280;73092;49.132;8.920;2024-01-27T08:29:52;101410.72;;;-2.46;100.00
83200;BME280;73092;49.132;8.920;2024-01-27T08:32:18;101413.72;;;-2.38;100.00
83200;BME280;73092;49.132;8.920;2024-01-27T08:34:43;101419.19;;;-2.32;100.00
83200;BME280;73092;49.132;8.920;2024-01-27T08:37:18;101424.69;;;-2.26;100.00
83200;BME280;73092;49.132;8.920;2024-01-27T08:39:43;101424.28;;;-2.17;100.00
83200;BME280;73092;49.132;8.920;2024-01-27T08:42:09;101419.25;;;-1.99;100.00
83200;BME280;73092;49.132;8.920;2024-01-27T08:44:34;101416.19;;;-1.92;100.00
83200;BME280;73092;49.132;8.920;2024-01-27T08:46:59;101408.28;;;-1.79;100.00
83200;BME280;73092;49.132;8.920;2024-01-27T08:49:25;101417.50;;;-1.68;100.00
83200;BME280;73092;49.132;8.920;2024-01-27T08:51:50;101421.38;;;-1.59;100.00
83200;BME280;73092;49.132;8.920;2024-01-27T08:54:15;101416.69;;;-1.50;100.00
83200;BME280;73092;49.132;8.920;2024-01-27T08:56:41;101419.25;;;-1.34;100.00
83200;BME280;73092;49.132;8.920;2024-01-27T08:59:06;101415.00;;;-1.15;100.00
83200;BME280;73092;49.132;8.920;2024-01-27T09:01:32;101419.00;;;-1.04;100.00
83200;BME280;73092;49.132;8.920;2024-01-27T09:03:57;101423.72;;;-0.96;100.00
83200;BME280;73092;49.132;8.920;2024-01-27T09:06:22;101420.34;;;-0.95;100.00
83200;BME280;73092;49.132;8.920;2024-01-27T09:08:48;101425.31;;;-0.81;100.00
83200;BME280;73092;49.132;8.920;2024-01-27T09:11:13;101423.59;;;-0.81;100.00
83200;BME280;73092;49.132;8.920;2024-01-27T09:13:38;101426.13;;;-0.64;100.00
83200;BME280;73092;49.132;8.920;2024-01-27T09:16:04;101428.19;;;-0.57;100.00
83200;BME280;73092;49.132;8.920;2024-01-27T09:18:29;101428.63;;;-0.48;100.00
83200;BME280;73092;49.132;8.920;2024-01-27T09:20:55;101425.34;;;-0.44;100.00
83200;BME280;73092;49.132;8.920;2024-01-27T09:23:20;101425.78;;;-0.35;100.00
83200;BME280;73092;49.132;8.920;2024-01-27T09:25:45;101430.22;;;-0.32;100.00
83200;BME280;73092;49.132;8.920;2024-01-27T09:28:11;101428.16;;;-0.21;100.00
83200;BME280;73092;49.132;8.920;2024-01-27T09:30:37;101439.22;;;-0.06;100.00
83200;BME280;73092;49.132;8.920;2024-01-27T09:33:03;101444.94;;;0.06;100.00
83200;BME280;73092;49.132;8.920;2024-01-27T09:35:28;101449.78;;;0.18;100.00
83200;BME280;73092;49.132;8.920;2024-01-27T09:37:53;101446.41;;;0.19;100.00
83200;BME280;73092;49.132;8.920;2024-01-27T09:40:19;101450.47;;;0.33;100.00
83200;BME280;73092;49.132;8.920;2024-01-27T09:42:50;101446.44;;;0.40;100.00
83200;BME280;73092;49.132;8.920;2024-01-27T09:45:22;101445.09;;;0.48;100.00
83200;BME280;73092;49.132;8.920;2024-01-27T09:47:49;101450.81;;;0.60;100.00
83200;BME280;73092;49.132;8.920;2024-01-27T09:50:17;101450.97;;;0.63;100.00
83200;BME280;73092;49.132;8.920;2024-01-27T09:52:42;101451.41;;;0.74;100.00
83200;BME280;73092;49.132;8.920;2024-01-27T09:55:08;101444.16;;;0.86;100.00
83200;BME280;73092;49.132;8.920;2024-01-27T09:57:36;101446.13;;;0.92;100.00
83200;BME280;73092;49.132;8.920;2024-01-27T10:00:04;101450.13;;;1.05;100.00
83200;BME280;73092;49.132;8.920;2024-01-27T10:02:31;101443.56;;;1.13;100.00
83200;BME280;73092;49.132;8.920;2024-01-27T10:04:58;101455.06;;;1.20;100.00
83200;BME280;73092;49.132;8.920;2024-01-27T10:07:24;101444.56;;;1.37;100.00
83200;BME280;73092;49.132;8.920;2024-01-27T10:09:50;101442.53;;;1.51;100.00
83200;BME280;73092;49.132;8.920;2024-01-27T10:12:16;101448.97;;;1.61;100.00
83200;BME280;73092;49.132;8.920;2024-01-27T10:14:42;101446.47;;;1.85;100.00
83200;BME280;73092;49.132;8.920;2024-01-27T10:17:20;101447.09;;;2.02;100.00
83200;BME280;73092;49.132;8.920;2024-01-27T10:19:45;101446.63;;;2.12;97.81
83200;BME280;73092;49.132;8.920;2024-01-27T10:22:11;101449.41;;;2.17;97.71
83200;BME280;73092;49.132;8.920;2024-01-27T10:24:36;101440.88;;;2.21;96.87
83200;BME280;73092;49.132;8.920;2024-01-27T10:27:02;101433.56;;;2.33;96.59
83200;BME280;73092;49.132;8.920;2024-01-27T10:29:28;101431.31;;;2.42;96.14
83200;BME280;73092;49.132;8.920;2024-01-27T10:31:54;101436.88;;;2.53;95.97
83200;BME280;73092;49.132;8.920;2024-01-27T10:34:20;101430.41;;;2.66;95.85
83200;BME280;73092;49.132;8.920;2024-01-27T10:36:46;101430.91;;;2.80;95.48
83200;BME280;73092;49.132;8.920;2024-01-27T10:39:19;101419.31;;;2.95;95.58
83200;BME280;73092;49.132;8.920;2024-01-27T10:41:46;101422.53;;;3.14;93.19
83200;BME280;73092;49.132;8.920;2024-01-27T10:44:16;101419.31;;;3.22;91.73
83200;BME280;73092;49.132;8.920;2024-01-27T10:46:48;101407.44;;;3.29;91.52
83200;BME280;73092;49.132;8.920;2024-01-27T10:49:17;101403.34;;;3.37;92.22
83200;BME280;73092;49.132;8.920;2024-01-27T10:51:45;101403.00;;;3.54;91.50
83200;BME280;73092;49.132;8.920;2024-01-27T10:54:18;101398.19;;;3.66;88.67
83200;BME280;73092;49.132;8.920;2024-01-27T10:56:47;101393.44;;;3.81;90.08
83200;BME280;73092;49.132;8.920;2024-01-27T10:59:13;101384.88;;;3.85;87.98
83200;BME280;73092;49.132;8.920;2024-01-27T11:01:41;101396.28;;;3.89;88.26
83200;BME280;73092;49.132;8.920;2024-01-27T11:04:08;101384.97;;;3.88;88.27
83200;BME280;73092;49.132;8.920;2024-01-27T11:06:36;101397.25;;;3.92;87.10
83200;BME280;73092;49.132;8.920;2024-01-27T11:09:03;101383.41;;;3.93;84.85
83200;BME280;73092;49.132;8.920;2024-01-27T11:11:29;101384.34;;;3.96;86.87
83200;BME280;73092;49.132;8.920;2024-01-27T11:13:55;101367.22;;;4.04;85.15
83200;BME280;73092;49.132;8.920;2024-01-27T11:16:23;101373.44;;;4.09;83.82
83200;BME280;73092;49.132;8.920;2024-01-27T11:18:48;101364.78;;;4.10;85.62
83200;BME280;73092;49.132;8.920;2024-01-27T11:21:15;101371.84;;;4.14;85.92
83200;BME280;73092;49.132;8.920;2024-01-27T11:23:44;101379.16;;;4.27;85.24
83200;BME280;73092;49.132;8.920;2024-01-27T11:26:20;101380.31;;;4.37;84.82
83200;BME280;73092;49.132;8.920;2024-01-27T11:28:45;101378.72;;;4.42;85.55
83200;BME280;73092;49.132;8.920;2024-01-27T11:31:11;101376.31;;;4.50;83.31
83200;BME280;73092;49.132;8.920;2024-01-27T11:33:44;101361.78;;;4.58;83.53
83200;BME280;73092;49.132;8.920;2024-01-27T11:36:23;101362.56;;;4.55;82.59
83200;BME280;73092;49.132;8.920;2024-01-27T11:38:52;101352.25;;;4.60;82.03
83200;BME280;73092;49.132;8.920;2024-01-27T11:41:28;101355.97;;;4.68;81.75
83200;BME280;73092;49.132;8.920;2024-01-27T11:43:55;101361.16;;;4.68;81.64
83200;BME280;73092;49.132;8.920;2024-01-27T11:46:20;101356.75;;;4.66;82.02
83200;BME280;73092;49.132;8.920;2024-01-27T11:48:46;101363.84;;;4.71;82.05
83200;BME280;73092;49.132;8.920;2024-01-27T11:51:12;101357.88;;;4.75;82.33
83200;BME280;73092;49.132;8.920;2024-01-27T11:53:38;101361.41;;;4.77;82.55
83200;BME280;73092;49.132;8.920;2024-01-27T11:56:04;101364.91;;;4.79;83.15
83200;BME280;73092;49.132;8.920;2024-01-27T11:58:30;101358.09;;;4.83;81.57
83200;BME280;73092;49.132;8.920;2024-01-27T12:00:56;101364.25;;;4.86;81.72
83200;BME280;73092;49.132;8.920;2024-01-27T12:03:21;101358.25;;;4.91;81.21
83200;BME280;73092;49.132;8.920;2024-01-27T12:05:47;101354.56;;;4.82;80.65
83200;BME280;73092;49.132;8.920;2024-01-27T12:08:12;101357.16;;;4.81;80.93
83200;BME280;73092;49.132;8.920;2024-01-27T12:10:38;101348.53;;;4.83;81.07
83200;BME280;73092;49.132;8.920;2024-01-27T12:13:03;101351.59;;;5.02;79.68
83200;BME280;73092;49.132;8.920;2024-01-27T12:15:29;101344.66;;;5.02;79.69
83200;BME280;73092;49.132;8.920;2024-01-27T12:17:56;101344.53;;;4.98;78.16
83200;BME280;73092;49.132;8.920;2024-01-27T12:20:25;101325.38;;;4.96;77.74
83200;BME280;73092;49.132;8.920;2024-01-27T12:23:02;101322.00;;;5.00;77.24
83200;BME280;73092;49.132;8.920;2024-01-27T12:25:27;101315.84;;;4.98;77.52
83200;BME280;73092;49.132;8.920;2024-01-27T12:27:53;101310.84;;;5.05;76.12
83200;BME280;73092;49.132;8.920;2024-01-27T12:30:18;101311.94;;;5.15;78.26
83200;BME280;73092;49.132;8.920;2024-01-27T12:32:43;101310.19;;;5.14;75.71
83200;BME280;73092;49.132;8.920;2024-01-27T12:35:09;101308.41;;;5.13;75.97
83200;BME280;73092;49.132;8.920;2024-01-27T12:37:36;101306.78;;;5.18;75.94
83200;BME280;73092;49.132;8.920;2024-01-27T12:40:03;101317.22;;;5.18;73.98